Time;durP1;ratioP1;P1;durP2;ratioP2;P2;SDS_P1;SDS_P2;PMS_P1;PMS_P2;Temp;Humidity;BMP_temperature;BMP_pressure;BME280_temperature;BME280_humidity;BME280_pressure;Samples;Min_cycle;Max_cycle;Signal;HPM_P1;HPM_P2
2023/01/15 00:01:30;;;;;;;4.20;1.52;;;31.90;99.90;;;;;;4975500;28;20198;-71
2023/01/15 00:03:59;;;;;;;6.13;0.67;;;32.50;99.90;;;;;;4975320;28;20179;-69
2023/01/15 00:06:27;;;;;;;4.67;0.90;;;32.30;99.90;;;;;;4974576;28;20313;-71
2023/01/15 00:08:55;;;;;;;2.10;1.10;;;32.20;99.90;;;;;;4975200;28;20175;-68
2023/01/15 00:11:23;;;;;;;6.10;0.80;;;32.30;99.90;;;;;;4974432;28;20194;-75
2023/01/15 00:13:51;;;;;;;2.42;0.60;;;32.30;99.90;;;;;;4975556;28;20203;-71
2023/01/15 00:16:24;;;;;;;2.40;0.70;;;32.10;99.90;;;;;;4974928;28;20222;-68
2023/01/15 00:18:53;;;;;;;2.90;1.02;;;32.50;99.90;;;;;;4975322;28;20641;-71
2023/01/15 00:21:21;;;;;;;4.40;0.80;;;32.20;99.90;;;;;;4974325;28;20293;-69
2023/01/15 00:29:22;;;;;;;4.38;0.80;;;32.60;99.90;;;;;;4980732;28;20187;-73
2023/01/15 00:32:05;;;;;;;1.95;0.85;;;33.60;99.90;;;;;;4974583;28;20179;-72
2023/01/15 00:34:33;;;;;;;2.88;0.98;;;33.90;99.90;;;;;;4957065;28;20190;-69
2023/01/15 00:37:01;;;;;;;2.78;0.63;;;33.90;99.90;;;;;;4956520;28;20190;-70
2023/01/15 00:39:29;;;;;;;1.27;0.68;;;34.00;99.90;;;;;;4973960;28;20191;-69
2023/01/15 00:41:57;;;;;;;2.88;1.02;;;34.20;99.90;;;;;;4974251;28;20186;-69
2023/01/15 00:44:24;;;;;;;3.35;0.82;;;34.50;99.90;;;;;;4974067;28;20171;-68
2023/01/15 00:46:52;;;;;;;1.92;0.73;;;34.40;99.90;;;;;;4973608;28;20221;-68
2023/01/15 00:49:25;;;;;;;4.03;0.73;;;34.60;99.90;;;;;;4974028;28;20183;-68
2023/01/15 00:55:15;;;;;;;4.78;0.93;;;34.80;99.90;;;;;;4972834;28;20253;-68
2023/01/15 00:57:42;;;;;;;3.75;1.13;;;34.50;97.70;;;;;;4973722;28;20187;-73
2023/01/15 01:00:11;;;;;;;5.03;1.08;;;34.70;99.90;;;;;;4973709;28;20175;-70
2023/01/15 01:02:38;;;;;;;3.78;0.95;;;35.00;97.70;;;;;;4974027;28;20291;-70
2023/01/15 01:05:06;;;;;;;8.77;1.70;;;34.90;90.40;;;;;;4976081;28;20191;-70
2023/01/15 01:07:33;;;;;;;5.43;1.00;;;34.60;93.90;;;;;;4973634;28;20642;-70
2023/01/15 01:10:01;;;;;;;3.95;1.15;;;34.80;92.30;;;;;;4973586;28;20190;-69
2023/01/15 01:12:28;;;;;;;2.08;0.70;;;34.80;90.90;;;;;;4972750;28;20210;-70
2023/01/15 01:14:56;;;;;;;7.35;1.38;;;34.90;92.40;;;;;;4954316;28;20188;-69
2023/01/15 01:17:23;;;;;;;7.20;1.40;;;34.60;91.10;;;;;;4954437;29;20301;-70
2023/01/15 01:19:51;;;;;;;14.68;1.60;;;33.90;93.50;;;;;;4954023;29;20176;-71
2023/01/15 01:22:18;;;;;;;4.78;1.00;;;34.30;94.00;;;;;;4954332;29;20176;-68
2023/01/15 01:24:45;;;;;;;4.95;1.00;;;34.70;90.40;;;;;;4954438;29;20177;-71
2023/01/15 01:27:13;;;;;;;3.47;1.13;;;34.90;89.20;;;;;;4972540;28;20251;-70
2023/01/15 01:29:40;;;;;;;7.65;1.13;;;34.80;90.90;;;;;;4973526;28;20179;-67
2023/01/15 01:32:08;;;;;;;3.92;1.20;;;35.40;87.90;;;;;;4973209;28;20188;-71
2023/01/15 01:34:35;;;;;;;2.20;0.80;;;35.40;90.80;;;;;;4972913;28;20175;-70
2023/01/15 01:37:03;;;;;;;17.90;2.33;;;35.70;90.10;;;;;;4973208;28;20179;-71
2023/01/15 01:39:30;;;;;;;8.52;1.27;;;35.90;90.20;;;;;;4973413;28;20177;-70
2023/01/15 01:41:57;;;;;;;2.05;0.80;;;35.10;88.10;;;;;;4972862;28;20342;-69
2023/01/15 01:44:34;;;;;;;5.10;1.00;;;35.10;93.50;;;;;;4973436;28;20183;-70
2023/01/15 01:47:07;;;;;;;3.33;1.10;;;35.20;90.00;;;;;;4973008;28;20224;-70
2023/01/15 01:49:36;;;;;;;2.65;1.08;;;35.60;86.70;;;;;;4972817;28;20259;-68
2023/01/15 01:52:08;;;;;;;3.38;1.20;;;35.50;85.80;;;;;;4973045;28;20179;-68
2023/01/15 01:54:37;;;;;;;2.33;1.00;;;35.60;80.60;;;;;;4972948;28;20188;-69
2023/01/15 01:57:08;;;;;;;5.65;1.45;;;35.50;79.50;;;;;;4972215;28;20206;-68
2023/01/15 01:59:37;;;;;;;5.32;1.00;;;35.40;81.40;;;;;;4972731;28;20861;-70
2023/01/15 02:02:05;;;;;;;4.50;0.88;;;35.60;78.20;;;;;;4955682;28;20271;-70
2023/01/15 02:04:34;;;;;;;4.28;1.20;;;35.90;79.20;;;;;;4972789;28;20202;-73
2023/01/15 02:07:02;;;;;;;1.52;1.00;;;35.40;81.10;;;;;;4972627;28;20242;-69
2023/01/15 02:09:30;;;;;;;2.47;1.20;;;35.40;86.50;;;;;;4956004;28;20179;-73
2023/01/15 02:12:05;;;;;;;2.67;1.00;;;35.30;76.30;;;;;;4972434;28;20695;-73
2023/01/15 02:14:48;;;;;;;5.22;1.15;;;35.70;83.80;;;;;;4955730;28;20182;-72
2023/01/15 02:17:38;;;;;;;5.20;1.15;;;35.80;80.90;;;;;;4972659;28;20194;-69
2023/01/15 02:20:44;;;;;;;4.22;0.95;;;36.30;92.50;;;;;;4972575;28;20183;-70
2023/01/15 02:23:38;;;;;;;5.05;0.95;;;36.70;79.20;;;;;;4951269;29;20187;-69
2023/01/15 02:26:27;;;;;;;6.00;1.30;;;37.00;71.30;;;;;;4953487;29;20214;-70
2023/01/15 02:28:57;;;;;;;3.05;1.10;;;36.80;67.40;;;;;;4953440;29;20186;-68
2023/01/15 02:31:31;;;;;;;2.05;1.35;;;36.60;68.80;;;;;;4953512;29;20183;-69
2023/01/15 02:34:26;;;;;;;2.20;1.20;;;36.70;82.90;;;;;;4952982;29;20666;-69
2023/01/15 02:37:10;;;;;;;2.60;1.52;;;36.50;72.80;;;;;;4953619;29;20184;-70
2023/01/15 02:39:41;;;;;;;3.00;1.02;;;36.50;77.50;;;;;;4953368;29;20689;-70
2023/01/15 02:42:10;;;;;;;2.33;1.00;;;36.20;83.60;;;;;;4953073;29;20187;-69
2023/01/15 02:44:44;;;;;;;2.72;1.20;;;36.50;79.70;;;;;;4953547;29;20184;-70
2023/01/15 02:47:12;;;;;;;3.28;1.10;;;36.60;72.30;;;;;;4959269;28;20226;-69
2023/01/15 02:49:42;;;;;;;2.65;1.40;;;36.10;81.90;;;;;;4972023;28;20179;-68
2023/01/15 02:52:29;;;;;;;3.70;1.20;;;36.10;90.10;;;;;;4955223;28;20645;-69
2023/01/15 02:55:05;;;;;;;2.47;1.58;;;35.90;85.40;;;;;;4972482;28;20194;-69
2023/01/15 03:04:28;;;;;;;3.45;1.50;;;36.60;83.60;;;;;;4960671;28;20218;-69
2023/01/15 03:07:11;;;;;;;3.78;1.40;;;37.00;71.80;;;;;;4954490;28;20237;-72
2023/01/15 03:09:39;;;;;;;4.10;1.88;;;37.00;82.10;;;;;;4967241;28;20234;-72
2023/01/15 03:12:33;;;;;;;2.40;1.23;;;36.70;75.40;;;;;;4954532;28;20238;-74
2023/01/15 03:16:33;;;;;;;4.65;1.42;;;36.60;83.40;;;;;;4951889;28;20196;-70
2023/01/15 03:18:00;;;;;;;3.63;1.30;;;36.40;88.30;;;;;;4963868;28;20205;-70
2023/01/15 03:20:29;;;;;;;5.05;1.70;;;36.00;89.60;;;;;;4975390;28;20635;-68
2023/01/15 03:23:07;;;;;;;3.42;1.60;;;35.90;86.70;;;;;;4975543;28;20187;-72
2023/01/15 03:25:41;;;;;;;7.05;1.33;;;36.00;88.60;;;;;;4981679;28;20225;-71
2023/01/15 03:28:11;;;;;;;3.17;1.00;;;35.80;94.50;;;;;;4984995;28;20257;-72
2023/01/15 03:30:38;;;;;;;4.65;1.25;;;35.80;93.60;;;;;;4975206;28;20191;-69
2023/01/15 03:33:10;;;;;;;1.73;1.00;;;35.80;91.70;;;;;;4975201;28;20176;-67
2023/01/15 03:35:56;;;;;;;5.43;1.25;;;35.50;92.60;;;;;;4985281;28;20197;-70
2023/01/15 03:38:29;;;;;;;1.88;1.30;;;35.50;93.30;;;;;;4979044;28;20242;-69
2023/01/15 03:41:38;;;;;;;6.05;1.40;;;35.60;96.60;;;;;;4956979;28;20602;-70
2023/01/15 03:44:24;;;;;;;4.65;1.10;;;35.40;96.80;;;;;;4972459;28;20768;-70
2023/01/15 03:46:54;;;;;;;2.70;1.25;;;35.40;99.90;;;;;;4992533;28;20985;-70
2023/01/15 03:49:24;;;;;;;5.28;1.30;;;35.60;99.90;;;;;;4985281;28;20184;-72
2023/01/15 03:52:24;;;;;;;2.83;1.20;;;35.90;99.40;;;;;;4974774;28;21805;-70
2023/01/15 03:55:16;;;;;;;3.72;1.10;;;35.80;97.00;;;;;;4954171;29;20204;-69
2023/01/15 03:57:59;;;;;;;4.65;1.08;;;35.60;96.50;;;;;;4972508;28;20400;-70
2023/01/15 04:00:58;;;;;;;2.72;1.00;;;35.90;98.30;;;;;;4957647;28;20191;-70
2023/01/15 04:03:27;;;;;;;2.55;1.23;;;35.70;97.80;;;;;;4974192;28;20184;-70
2023/01/15 04:05:59;;;;;;;4.57;1.15;;;35.70;99.90;;;;;;4976123;28;20206;-74
2023/01/15 04:08:30;;;;;;;4.65;1.17;;;35.80;99.30;;;;;;4974510;28;20183;-71
2023/01/15 04:11:00;;;;;;;2.25;1.20;;;35.70;98.60;;;;;;4974514;28;20180;-75
2023/01/15 04:13:28;;;;;;;7.47;1.30;;;35.50;99.90;;;;;;4974887;28;20191;-73
2023/01/15 04:15:56;;;;;;;5.53;1.30;;;36.00;99.90;;;;;;4974708;28;20230;-75
2023/01/15 04:18:28;;;;;;;7.07;1.42;;;36.10;99.40;;;;;;4957502;28;20207;-73
2023/01/15 04:20:55;;;;;;;4.85;1.20;;;35.70;99.50;;;;;;4974765;28;20194;-74
2023/01/15 04:23:23;;;;;;;8.32;1.90;;;35.10;99.90;;;;;;4974352;28;20183;-73
2023/01/15 04:25:50;;;;;;;4.35;1.20;;;35.40;99.90;;;;;;4956558;28;20219;-73
2023/01/15 04:28:17;;;;;;;5.45;1.02;;;35.60;99.90;;;;;;4974584;28;20199;-73
2023/01/15 04:30:45;;;;;;;5.53;1.30;;;35.60;99.90;;;;;;4974326;28;20180;-73
2023/01/15 04:33:12;;;;;;;2.15;1.00;;;35.80;99.90;;;;;;4974082;28;20179;-74
2023/01/15 04:35:40;;;;;;;5.70;1.55;;;35.70;99.90;;;;;;4974505;28;20179;-72
2023/01/15 04:38:07;;;;;;;4.38;1.10;;;36.00;99.90;;;;;;4974196;28;20174;-72
2023/01/15 04:46:05;;;;;;;3.25;1.20;;;35.80;99.90;;;;;;4974308;28;20258;-74
2023/01/15 04:48:32;;;;;;;6.03;1.20;;;35.50;99.90;;;;;;4973796;28;20175;-73
2023/01/15 04:51:03;;;;;;;4.80;1.13;;;35.40;99.90;;;;;;4974122;28;20179;-73
2023/01/15 04:53:31;;;;;;;2.83;0.88;;;35.10;99.90;;;;;;4974349;28;20181;-73
2023/01/15 04:56:05;;;;;;;8.32;1.83;;;35.20;99.90;;;;;;4973711;28;20183;-75
2023/01/15 04:58:34;;;;;;;3.88;1.10;;;35.40;99.90;;;;;;4973842;28;20203;-70
2023/01/15 05:01:01;;;;;;;5.07;1.25;;;35.50;99.90;;;;;;4974005;28;20187;-70
2023/01/15 05:03:30;;;;;;;1.13;0.82;;;35.40;99.90;;;;;;4973157;28;20556;-71
2023/01/15 05:06:06;;;;;;;4.20;1.10;;;35.60;99.90;;;;;;4972724;28;20621;-69
2023/01/15 05:08:35;;;;;;;4.80;1.15;;;35.90;99.90;;;;;;4972234;28;20226;-70
2023/01/15 05:11:04;;;;;;;3.35;1.00;;;35.60;99.90;;;;;;4973452;28;20238;-70
2023/01/15 05:13:33;;;;;;;2.83;1.20;;;35.30;99.90;;;;;;4973782;28;20171;-72
2023/01/15 05:16:19;;;;;;;3.47;1.33;;;35.40;99.90;;;;;;4973368;28;20227;-71
2023/01/15 05:18:47;;;;;;;5.13;1.10;;;35.00;99.90;;;;;;4973357;28;20186;-69
2023/01/15 05:21:20;;;;;;;5.95;0.98;;;35.30;99.90;;;;;;4973671;28;20175;-70
2023/01/15 05:23:49;;;;;;;5.97;1.42;;;35.50;99.90;;;;;;4972945;28;20187;-69
2023/01/15 05:26:18;;;;;;;4.72;1.48;;;35.50;99.20;;;;;;4973351;28;20219;-71
2023/01/15 05:28:45;;;;;;;3.08;0.80;;;35.10;99.90;;;;;;4973485;28;20282;-70
2023/01/15 05:31:15;;;;;;;2.90;1.30;;;35.10;99.10;;;;;;4973227;28;20261;-70
2023/01/15 05:33:43;;;;;;;5.03;1.20;;;34.80;99.90;;;;;;4973371;28;20525;-75
2023/01/15 05:36:16;;;;;;;3.13;1.00;;;34.50;99.90;;;;;;4973340;28;20649;-71
2023/01/15 05:38:44;;;;;;;3.00;1.05;;;34.70;99.90;;;;;;4971895;28;20338;-70
2023/01/15 05:44:08;;;;;;;4.95;1.30;;;34.70;99.90;;;;;;4982496;28;20250;-71
2023/01/15 05:46:38;;;;;;;4.00;1.10;;;34.50;99.90;;;;;;4972882;28;20219;-71
2023/01/15 05:49:10;;;;;;;4.03;1.00;;;34.70;99.90;;;;;;4970047;28;20214;-70
2023/01/15 05:51:39;;;;;;;2.33;0.95;;;34.60;99.90;;;;;;4973332;28;20263;-69
2023/01/15 05:54:08;;;;;;;4.72;1.20;;;34.50;99.90;;;;;;4954882;28;20189;-72
2023/01/15 05:56:36;;;;;;;3.08;1.30;;;34.60;99.90;;;;;;4992481;28;20202;-68
2023/01/15 05:59:05;;;;;;;5.38;1.20;;;34.60;99.90;;;;;;4992417;28;20219;-70
2023/01/15 06:01:32;;;;;;;3.85;1.20;;;34.40;99.90;;;;;;4991993;28;20179;-69
2023/01/15 06:04:01;;;;;;;5.63;1.38;;;34.50;99.90;;;;;;4992334;28;20179;-69
2023/01/15 06:06:30;;;;;;;4.05;1.40;;;34.30;99.90;;;;;;4992347;28;20214;-70
2023/01/15 06:08:57;;;;;;;3.63;1.10;;;34.50;99.90;;;;;;4991906;28;20589;-70
2023/01/15 06:11:25;;;;;;;5.60;1.38;;;34.40;99.90;;;;;;4992384;28;20207;-70
2023/01/15 06:13:53;;;;;;;6.55;1.15;;;34.00;99.90;;;;;;4992362;28;20213;-69
2023/01/15 06:16:20;;;;;;;3.15;1.30;;;33.80;99.90;;;;;;4991584;28;20237;-69
2023/01/15 06:18:47;;;;;;;5.85;1.33;;;33.90;99.90;;;;;;4992262;28;20175;-69
2023/01/15 06:21:16;;;;;;;3.97;1.20;;;33.80;99.90;;;;;;4992411;28;20628;-69
2023/01/15 06:23:44;;;;;;;4.07;1.10;;;33.60;99.90;;;;;;4974394;28;20197;-69
2023/01/15 06:26:17;;;;;;;4.70;1.38;;;33.60;99.90;;;;;;4992212;28;20213;-68
2023/01/15 06:28:46;;;;;;;5.30;1.08;;;33.70;99.90;;;;;;4992390;28;20272;-69
2023/01/15 06:31:16;;;;;;;4.97;1.42;;;33.80;99.90;;;;;;4991890;28;20183;-69
2023/01/15 06:33:44;;;;;;;5.07;1.60;;;33.80;99.90;;;;;;4992299;28;20179;-69
2023/01/15 06:36:14;;;;;;;8.45;1.45;;;33.80;99.90;;;;;;4992169;28;20640;-69
2023/01/15 06:38:42;;;;;;;1.67;0.90;;;33.80;99.90;;;;;;4991895;28;20532;-71
2023/01/15 06:47:22;;;;;;;3.13;1.30;;;33.50;99.90;;;;;;4991338;28;20244;-68
2023/01/15 06:49:51;;;;;;;5.10;1.33;;;33.40;99.90;;;;;;4992067;28;20174;-69
2023/01/15 06:52:19;;;;;;;2.63;1.33;;;33.00;99.90;;;;;;4992125;28;20174;-69
2023/01/15 06:54:46;;;;;;;5.32;1.50;;;32.90;99.90;;;;;;4995074;28;20174;-68
2023/01/15 06:57:14;;;;;;;4.60;1.50;;;32.80;99.90;;;;;;4995902;28;20182;-69
2023/01/15 06:59:41;;;;;;;5.90;1.35;;;33.00;99.90;;;;;;4995668;28;20206;-69
2023/01/15 07:02:11;;;;;;;8.57;1.90;;;32.90;99.90;;;;;;4995279;28;20721;-69
2023/01/15 07:04:38;;;;;;;8.93;1.42;;;32.80;99.90;;;;;;4995752;28;20792;-72
2023/01/15 07:07:06;;;;;;;8.02;1.73;;;32.80;99.90;;;;;;4995679;28;20214;-68
2023/01/15 07:09:33;;;;;;;3.80;1.55;;;32.50;99.90;;;;;;4995022;28;20717;-69
2023/01/15 07:12:00;;;;;;;5.70;1.88;;;32.20;99.90;;;;;;4995478;28;20183;-69
2023/01/15 07:14:28;;;;;;;6.40;1.45;;;32.30;99.90;;;;;;4995513;28;20171;-69
2023/01/15 07:16:57;;;;;;;7.70;1.47;;;32.20;99.90;;;;;;4994869;28;20229;-69
2023/01/15 07:19:26;;;;;;;6.00;1.40;;;31.70;99.90;;;;;;4995462;28;20221;-69
2023/01/15 07:21:53;;;;;;;4.93;1.90;;;31.30;99.90;;;;;;4995261;28;20305;-70
2023/01/15 07:24:21;;;;;;;7.27;1.63;;;30.90;99.90;;;;;;4994869;28;20179;-69
2023/01/15 07:26:48;;;;;;;5.03;1.53;;;30.70;99.90;;;;;;4995174;28;20237;-71
2023/01/15 07:29:16;;;;;;;5.67;1.70;;;30.40;99.90;;;;;;4995218;28;20183;-71
2023/01/15 07:31:43;;;;;;;8.47;1.83;;;30.20;99.90;;;;;;4994786;28;20364;-69
2023/01/15 07:34:11;;;;;;;7.03;1.40;;;30.10;99.90;;;;;;4995033;28;20183;-70
2023/01/15 07:36:38;;;;;;;9.10;1.93;;;29.90;99.90;;;;;;4977554;28;20963;-70
2023/01/15 07:39:07;;;;;;;8.03;1.40;;;29.70;99.90;;;;;;4994512;28;20637;-70
2023/01/15 07:50:05;;;;;;;6.80;1.80;;;29.40;99.90;;;;;;4975545;28;20249;-69
2023/01/15 07:52:32;;;;;;;4.90;1.20;;;29.20;99.90;;;;;;4974713;28;20183;-69
2023/01/15 07:55:00;;;;;;;5.73;1.37;;;29.00;99.90;;;;;;4975501;28;20180;-69
2023/01/15 07:57:28;;;;;;;7.23;1.80;;;29.00;99.90;;;;;;4975086;28;20505;-69
2023/01/15 07:59:56;;;;;;;6.57;1.70;;;29.00;99.90;;;;;;4974792;28;20179;-69
2023/01/15 08:02:24;;;;;;;5.60;1.30;;;28.90;99.90;;;;;;4979005;28;20193;-69
2023/01/15 08:04:51;;;;;;;8.60;1.50;;;28.90;99.90;;;;;;4975854;28;20238;-68
2023/01/15 08:07:19;;;;;;;7.90;1.47;;;28.70;99.90;;;;;;4977072;28;20211;-70
2023/01/15 08:09:46;;;;;;;6.23;1.73;;;28.70;99.90;;;;;;4976606;28;20199;-70
2023/01/15 08:15:14;;;;;;;3.70;1.50;;;28.60;99.90;;;;;;4987920;28;20230;-68
2023/01/15 08:17:47;;;;;;;3.67;1.50;;;28.50;99.90;;;;;;4976666;28;20208;-69
2023/01/15 08:20:20;;;;;;;8.77;2.00;;;28.50;99.90;;;;;;4994156;28;20332;-69
2023/01/15 08:22:48;;;;;;;8.50;1.73;;;28.40;99.90;;;;;;4993661;28;20545;-68
2023/01/15 08:25:18;;;;;;;8.40;1.87;;;28.50;99.90;;;;;;4994093;28;20290;-69
2023/01/15 08:27:46;;;;;;;7.40;1.80;;;28.40;99.90;;;;;;4993994;28;20280;-68
2023/01/15 08:30:20;;;;;;;8.60;1.70;;;28.40;99.90;;;;;;4993653;28;20262;-68
2023/01/15 08:32:47;;;;;;;7.53;1.80;;;28.20;99.90;;;;;;4993910;28;20182;-69
2023/01/15 08:35:15;;;;;;;8.13;2.00;;;28.10;99.90;;;;;;4993953;28;20186;-69
2023/01/15 08:37:43;;;;;;;10.83;1.87;;;28.10;99.90;;;;;;4975686;28;20185;-69
2023/01/15 08:40:11;;;;;;;8.37;2.37;;;28.00;99.90;;;;;;4993880;28;20179;-70
2023/01/15 08:42:39;;;;;;;10.37;1.97;;;28.00;99.90;;;;;;4993752;28;20691;-70
2023/01/15 08:45:08;;;;;;;6.83;1.57;;;27.90;99.90;;;;;;4993331;28;20190;-69
2023/01/15 08:47:36;;;;;;;6.30;1.80;;;27.90;99.90;;;;;;4993494;28;20214;-69
2023/01/15 08:50:06;;;;;;;8.53;1.93;;;27.80;99.90;;;;;;4993610;28;20539;-68
2023/01/15 08:52:33;;;;;;;6.10;2.43;;;27.70;99.90;;;;;;4992882;28;20183;-69
2023/01/15 08:55:01;;;;;;;8.90;2.53;;;27.60;99.90;;;;;;4993534;28;20187;-68
2023/01/15 08:57:28;;;;;;;9.00;2.37;;;27.40;99.90;;;;;;4993400;28;20187;-69
2023/01/15 08:59:56;;;;;;;15.40;2.30;;;27.20;99.90;;;;;;4993043;28;20190;-69
2023/01/15 09:02:23;;;;;;;10.17;2.07;;;27.10;99.90;;;;;;4993588;28;20178;-71
2023/01/15 09:04:51;;;;;;;7.73;1.93;;;27.00;99.90;;;;;;4993314;28;20269;-69
2023/01/15 09:07:19;;;;;;;9.77;2.33;;;26.90;99.90;;;;;;4992722;28;20273;-73
2023/01/15 09:09:46;;;;;;;9.73;2.30;;;26.80;99.90;;;;;;4993188;28;20576;-70
2023/01/15 09:12:13;;;;;;;12.70;2.73;;;26.60;99.90;;;;;;4993307;28;20675;-69
2023/01/15 09:14:41;;;;;;;7.57;2.60;;;26.40;99.90;;;;;;4992903;28;20703;-69
2023/01/15 09:20:30;;;;;;;12.43;2.53;;;26.10;99.90;;;;;;4992691;28;20264;-69
2023/01/15 09:22:57;;;;;;;11.30;3.00;;;25.90;99.90;;;;;;4975242;28;20179;-69
2023/01/15 09:25:25;;;;;;;11.03;2.37;;;25.80;99.90;;;;;;4993100;28;20186;-70
2023/01/15 09:27:56;;;;;;;11.13;2.70;;;25.70;99.90;;;;;;4975515;28;20230;-69
2023/01/15 09:30:23;;;;;;;14.10;2.83;;;25.50;99.90;;;;;;4992847;28;20253;-69
2023/01/15 09:32:50;;;;;;;15.10;2.90;;;25.40;99.90;;;;;;4993038;28;20181;-69
2023/01/15 09:35:18;;;;;;;16.40;2.67;;;25.30;99.90;;;;;;4993025;28;20179;-69
2023/01/15 09:37:52;;;;;;;9.13;2.80;;;25.30;99.90;;;;;;4983921;28;20187;-69
2023/01/15 09:40:51;;;;;;;10.97;2.67;;;25.20;99.90;;;;;;4977772;28;20297;-68
2023/01/15 09:43:29;;;;;;;11.37;2.73;;;25.20;99.90;;;;;;4952919;28;20282;-69
2023/01/15 09:46:11;;;;;;;10.57;2.63;;;25.20;99.90;;;;;;4973433;28;20293;-68
2023/01/15 09:49:00;;;;;;;8.07;2.37;;;25.20;99.90;;;;;;4972515;28;20183;-69
2023/01/15 09:52:06;;;;;;;13.23;2.90;;;25.00;99.90;;;;;;4972665;28;20182;-70
2023/01/15 09:54:58;;;;;;;10.90;2.60;;;25.00;99.90;;;;;;4992024;28;20194;-68
2023/01/15 09:57:27;;;;;;;13.50;3.47;;;24.80;99.90;;;;;;4953951;29;20195;-69
2023/01/15 10:00:01;;;;;;;12.67;2.43;;;24.70;99.90;;;;;;4955278;28;20219;-69
2023/01/15 10:02:59;;;;;;;15.03;3.30;;;24.80;99.90;;;;;;4973046;28;20183;-69
2023/01/15 10:05:37;;;;;;;9.07;2.20;;;24.80;99.90;;;;;;4972582;28;20238;-69
2023/01/15 10:08:15;;;;;;;10.70;2.83;;;24.70;99.90;;;;;;4973107;28;20286;-70
2023/01/15 10:10:53;;;;;;;11.93;3.10;;;24.80;99.90;;;;;;4973022;28;20182;-69
2023/01/15 10:13:38;;;;;;;11.57;2.77;;;24.80;99.90;;;;;;4972254;28;20195;-68
2023/01/15 10:16:06;;;;;;;11.27;2.90;;;24.80;99.90;;;;;;4972690;28;20249;-74
2023/01/15 10:18:35;;;;;;;12.23;2.90;;;24.80;99.90;;;;;;4955424;28;20191;-69
2023/01/15 10:21:32;;;;;;;12.47;3.30;;;24.70;99.90;;;;;;4972487;28;20250;-69
2023/01/15 10:24:14;;;;;;;10.00;3.10;;;24.60;99.90;;;;;;4972983;28;20206;-71
2023/01/15 10:26:59;;;;;;;10.00;2.57;;;24.60;99.90;;;;;;4972699;28;20226;-68
2023/01/15 10:29:45;;;;;;;10.83;2.90;;;24.50;99.90;;;;;;4957117;29;20176;-67
2023/01/15 10:32:50;;;;;;;11.80;3.20;;;24.50;99.90;;;;;;4958709;29;20671;-68
2023/01/15 10:35:23;;;;;;;7.77;2.10;;;24.40;99.90;;;;;;4960430;28;20573;-68
2023/01/15 10:37:50;;;;;;;9.23;2.20;;;24.50;99.90;;;;;;4977912;28;20175;-68
2023/01/15 10:40:36;;;;;;;10.10;2.87;;;24.40;99.90;;;;;;4977605;28;20198;-67
2023/01/15 10:43:03;;;;;;;10.57;2.57;;;24.40;99.90;;;;;;4977996;28;20207;-67
2023/01/15 10:45:53;;;;;;;14.37;3.17;;;24.40;99.90;;;;;;4977499;28;20183;-68
2023/01/15 10:48:35;;;;;;;9.83;2.77;;;24.40;99.90;;;;;;4978027;28;20206;-67
2023/01/15 10:51:15;;;;;;;8.87;2.50;;;24.40;99.90;;;;;;4977438;28;20644;-67
2023/01/15 10:53:55;;;;;;;10.13;2.77;;;24.50;99.90;;;;;;4977344;28;20210;-68
2023/01/15 10:56:43;;;;;;;15.43;3.53;;;24.40;99.90;;;;;;4976495;28;20183;-68
2023/01/15 10:59:41;;;;;;;13.03;3.57;;;24.40;99.90;;;;;;4977844;28;20579;-67
2023/01/15 11:02:40;;;;;;;18.57;3.13;;;24.40;99.90;;;;;;4976929;28;20187;-66
2023/01/15 11:05:16;;;;;;;9.23;2.60;;;24.40;99.90;;;;;;4976967;28;20609;-71
2023/01/15 11:07:49;;;;;;;12.43;3.40;;;24.40;99.90;;;;;;4977343;28;20582;-72
2023/01/15 11:10:20;;;;;;;9.23;2.50;;;24.30;99.90;;;;;;4976946;28;20712;-75
2023/01/15 11:21:39;;;;;;;11.47;2.57;;;24.20;99.90;;;;;;4977305;28;20186;-67
2023/01/15 11:24:15;;;;;;;14.97;2.97;;;24.20;99.90;;;;;;4977494;28;20190;-68
2023/01/15 11:26:51;;;;;;;12.13;2.67;;;24.10;99.90;;;;;;4977362;28;20215;-68
2023/01/15 11:29:35;;;;;;;14.77;3.17;;;24.10;99.90;;;;;;4977060;28;20183;-67
2023/01/15 11:32:03;;;;;;;10.67;2.73;;;24.00;99.90;;;;;;4977179;28;20641;-66
2023/01/15 11:34:31;;;;;;;7.67;2.40;;;24.00;99.90;;;;;;4977276;28;20185;-66
2023/01/15 11:37:05;;;;;;;12.33;2.43;;;23.90;99.90;;;;;;4977051;28;20225;-68
2023/01/15 11:39:33;;;;;;;11.33;2.80;;;23.90;99.90;;;;;;4976384;28;20177;-66
2023/01/15 11:51:01;;;;;;;10.73;2.00;;;23.70;99.90;;;;;;4933789;28;20238;-67
2023/01/15 11:53:32;;;;;;;14.13;2.63;;;23.60;99.90;;;;;;4977015;28;20633;-67
2023/01/15 11:56:05;;;;;;;16.43;2.87;;;23.60;99.90;;;;;;4976669;28;20209;-67
2023/01/15 11:58:39;;;;;;;16.10;2.70;;;23.50;99.90;;;;;;4976566;28;20546;-67
2023/01/15 12:01:08;;;;;;;11.43;2.47;;;23.50;99.90;;;;;;4976564;28;20298;-66
2023/01/15 12:03:39;;;;;;;11.03;2.63;;;23.40;99.90;;;;;;4959234;28;20194;-68
2023/01/15 12:06:10;;;;;;;16.00;3.73;;;23.40;99.90;;;;;;4976282;28;20286;-68
2023/01/15 12:08:51;;;;;;;11.07;2.07;;;23.30;99.90;;;;;;4976351;28;20186;-67
2023/01/15 12:11:44;;;;;;;16.43;2.73;;;23.20;99.90;;;;;;4976507;28;20187;-67
2023/01/15 12:14:30;;;;;;;13.63;2.40;;;23.20;99.90;;;;;;4976370;28;20183;-72
2023/01/15 12:17:20;;;;;;;12.47;2.37;;;23.20;99.90;;;;;;4975998;28;20699;-68
2023/01/15 12:20:00;;;;;;;13.10;2.77;;;23.20;99.90;;;;;;4976177;28;20203;-67
2023/01/15 12:23:01;;;;;;;14.50;2.70;;;23.10;99.90;;;;;;4976146;28;20175;-68
2023/01/15 12:25:37;;;;;;;10.50;2.23;;;23.20;99.90;;;;;;4958550;28;20190;-68
2023/01/15 12:28:17;;;;;;;18.77;3.13;;;23.10;99.90;;;;;;4975973;28;20251;-67
2023/01/15 12:31:08;;;;;;;11.03;2.53;;;23.10;99.90;;;;;;4976114;28;20740;-68
2023/01/15 12:33:44;;;;;;;8.87;2.20;;;23.10;99.90;;;;;;4976511;28;20250;-66
2023/01/15 12:36:24;;;;;;;11.73;2.67;;;23.10;99.90;;;;;;4976196;28;20238;-66
2023/01/15 12:39:07;;;;;;;10.67;2.40;;;23.00;99.90;;;;;;4975935;28;20265;-66
2023/01/15 12:47:39;;;;;;;13.23;2.13;;;23.00;99.90;;;;;;4975758;28;20257;-66
2023/01/15 12:50:18;;;;;;;9.50;2.37;;;23.00;99.90;;;;;;4975803;28;20178;-66
2023/01/15 12:52:49;;;;;;;7.83;1.80;;;23.00;99.90;;;;;;4975612;28;20186;-66
2023/01/15 12:55:22;;;;;;;10.73;2.47;;;22.90;99.90;;;;;;4975731;28;20181;-66
2023/01/15 12:57:58;;;;;;;6.97;2.03;;;22.80;99.90;;;;;;4975486;28;20187;-67
2023/01/15 13:00:26;;;;;;;11.03;2.20;;;22.70;99.90;;;;;;4975473;28;20175;-66
2023/01/15 13:03:37;;;;;;;7.27;2.00;;;22.70;99.90;;;;;;4975665;28;20182;-66
2023/01/15 13:06:08;;;;;;;14.20;2.97;;;22.70;99.90;;;;;;4942946;28;20313;-68
2023/01/15 13:09:02;;;;;;;9.77;2.10;;;22.70;99.90;;;;;;4975172;28;20195;-68
2023/01/15 13:11:30;;;;;;;10.07;2.07;;;22.70;99.90;;;;;;4975604;28;20182;-67
2023/01/15 13:13:57;;;;;;;13.90;2.37;;;22.70;99.90;;;;;;4975341;28;20261;-68
2023/01/15 13:17:05;;;;;;;7.17;1.90;;;22.70;99.90;;;;;;4974916;28;20319;-67
2023/01/15 13:19:45;;;;;;;10.40;1.80;;;22.60;99.90;;;;;;4915589;29;20591;-67
2023/01/15 13:22:28;;;;;;;10.23;2.70;;;22.60;99.90;;;;;;4971397;28;20191;-67
2023/01/15 13:25:11;;;;;;;9.97;2.20;;;22.50;99.90;;;;;;4957997;28;20183;-71
2023/01/15 13:28:00;;;;;;;11.00;2.00;;;22.50;99.90;;;;;;4974913;28;20218;-67
2023/01/15 13:30:43;;;;;;;9.37;2.53;;;22.60;99.90;;;;;;4975591;28;20182;-67
2023/01/15 13:33:23;;;;;;;15.37;2.77;;;22.50;99.90;;;;;;4975092;28;20179;-67
2023/01/15 13:36:03;;;;;;;10.20;2.20;;;22.50;99.90;;;;;;4975043;28;20183;-67
2023/01/15 13:38:37;;;;;;;8.43;1.83;;;22.50;99.90;;;;;;4974271;28;20212;-67
2023/01/15 13:41:07;;;;;;;8.43;2.03;;;22.50;99.90;;;;;;4974641;28;20194;-67
2023/01/15 13:43:39;;;;;;;15.23;2.60;;;22.50;99.90;;;;;;4974756;28;20648;-68
2023/01/15 13:46:11;;;;;;;13.47;2.20;;;22.40;99.90;;;;;;4974426;28;20199;-68
2023/01/15 13:48:49;;;;;;;7.50;2.00;;;22.40;99.90;;;;;;4974655;28;20574;-68
2023/01/15 13:51:37;;;;;;;8.80;1.97;;;22.30;99.90;;;;;;4974545;28;20534;-72
2023/01/15 13:54:10;;;;;;;11.57;2.30;;;22.30;99.90;;;;;;4974662;28;20195;-68
2023/01/15 13:56:38;;;;;;;10.47;2.13;;;22.30;99.90;;;;;;4974584;28;20242;-68
2023/01/15 13:59:26;;;;;;;11.87;2.50;;;22.30;99.90;;;;;;4974265;28;20212;-69
2023/01/15 14:01:54;;;;;;;10.87;2.47;;;22.30;99.90;;;;;;4974286;28;20631;-68
2023/01/15 14:04:39;;;;;;;8.53;2.40;;;22.30;99.90;;;;;;4975129;28;20538;-69
2023/01/15 14:07:29;;;;;;;14.80;2.70;;;22.30;99.90;;;;;;4974534;28;20219;-68
2023/01/15 14:10:16;;;;;;;10.03;2.30;;;22.30;99.90;;;;;;4974313;28;20273;-68
2023/01/15 14:13:06;;;;;;;14.67;2.73;;;22.30;99.90;;;;;;4974118;28;20191;-68
2023/01/15 14:15:57;;;;;;;14.47;2.30;;;22.20;99.90;;;;;;4949626;28;20230;-67
2023/01/15 14:18:51;;;;;;;8.27;1.90;;;22.20;99.90;;;;;;4974127;28;20208;-69
2023/01/15 14:21:39;;;;;;;8.17;1.77;;;22.10;99.90;;;;;;4974163;28;20179;-68
2023/01/15 14:24:47;;;;;;;13.27;2.90;;;22.10;99.90;;;;;;4974734;28;20172;-68
2023/01/15 14:27:33;;;;;;;12.17;2.10;;;22.20;99.90;;;;;;4971812;28;20567;-71